sensor_id;sensor_type;location;lat;lon;timestamp;temperature;humidity
29539;DHT22;16482;51.046;4.498;2022-12-11T00:01:39;19.60;32.50
29539;DHT22;16482;51.046;4.498;2022-12-11T00:04:05;19.60;32.50
29539;DHT22;16482;51.046;4.498;2022-12-11T00:06:31;19.60;32.50
29539;DHT22;16482;51.046;4.498;2022-12-11T00:09:00;19.60;32.50
29539;DHT22;16482;51.046;4.498;2022-12-11T00:11:26;19.60;32.40
29539;DHT22;16482;51.046;4.498;2022-12-11T00:14:01;19.60;32.50
29539;DHT22;16482;51.046;4.498;2022-12-11T00:16:27;19.60;32.40
29539;DHT22;16482;51.046;4.498;2022-12-11T00:18:54;19.60;32.50
29539;DHT22;16482;51.046;4.498;2022-12-11T00:21:20;19.60;32.40
29539;DHT22;16482;51.046;4.498;2022-12-11T00:23:46;19.60;32.40
29539;DHT22;16482;51.046;4.498;2022-12-11T00:26:14;19.60;32.50
29539;DHT22;16482;51.046;4.498;2022-12-11T00:28:41;19.60;32.50
29539;DHT22;16482;51.046;4.498;2022-12-11T00:31:17;19.60;32.50
29539;DHT22;16482;51.046;4.498;2022-12-11T00:33:44;19.60;32.40
29539;DHT22;16482;51.046;4.498;2022-12-11T00:36:16;19.60;32.40
29539;DHT22;16482;51.046;4.498;2022-12-11T00:38:43;19.60;32.40
29539;DHT22;16482;51.046;4.498;2022-12-11T00:41:09;19.60;32.40
29539;DHT22;16482;51.046;4.498;2022-12-11T00:43:36;19.60;32.30
29539;DHT22;16482;51.046;4.498;2022-12-11T00:46:02;19.60;32.30
29539;DHT22;16482;51.046;4.498;2022-12-11T00:48:28;19.60;32.30
29539;DHT22;16482;51.046;4.498;2022-12-11T00:50:58;19.60;32.30
29539;DHT22;16482;51.046;4.498;2022-12-11T00:53:24;19.60;32.30
29539;DHT22;16482;51.046;4.498;2022-12-11T00:55:50;19.60;32.30
29539;DHT22;16482;51.046;4.498;2022-12-11T00:58:16;19.60;32.20
29539;DHT22;16482;51.046;4.498;2022-12-11T01:00:43;19.60;32.20
29539;DHT22;16482;51.046;4.498;2022-12-11T01:03:10;19.60;32.10
29539;DHT22;16482;51.046;4.498;2022-12-11T01:05:40;19.60;32.20
29539;DHT22;16482;51.046;4.498;2022-12-11T01:08:07;19.60;32.30
29539;DHT22;16482;51.046;4.498;2022-12-11T01:10:35;19.60;32.30
29539;DHT22;16482;51.046;4.498;2022-12-11T01:13:04;19.60;32.30
29539;DHT22;16482;51.046;4.498;2022-12-11T01:15:37;19.60;32.30
29539;DHT22;16482;51.046;4.498;2022-12-11T01:18:03;19.60;32.30
29539;DHT22;16482;51.046;4.498;2022-12-11T01:20:29;19.60;32.20
29539;DHT22;16482;51.046;4.498;2022-12-11T01:22:57;19.60;32.30
29539;DHT22;16482;51.046;4.498;2022-12-11T01:25:24;19.60;32.30
29539;DHT22;16482;51.046;4.498;2022-12-11T01:27:54;19.60;32.30
29539;DHT22;16482;51.046;4.498;2022-12-11T01:30:22;19.60;32.30
29539;DHT22;16482;51.046;4.498;2022-12-11T01:32:49;19.60;32.40
29539;DHT22;16482;51.046;4.498;2022-12-11T01:35:16;19.60;32.40
29539;DHT22;16482;51.046;4.498;2022-12-11T01:37:43;19.60;32.40
29539;DHT22;16482;51.046;4.498;2022-12-11T01:40:12;19.60;32.40
29539;DHT22;16482;51.046;4.498;2022-12-11T01:42:38;19.60;32.40
29539;DHT22;16482;51.046;4.498;2022-12-11T01:45:30;19.60;32.40
29539;DHT22;16482;51.046;4.498;2022-12-11T01:50:30;19.60;32.50
29539;DHT22;16482;51.046;4.498;2022-12-11T01:53:01;19.60;32.40
29539;DHT22;16482;51.046;4.498;2022-12-11T01:55:31;19.60;32.40
29539;DHT22;16482;51.046;4.498;2022-12-11T01:57:57;19.60;32.40
29539;DHT22;16482;51.046;4.498;2022-12-11T02:00:23;19.60;32.40
29539;DHT22;16482;51.046;4.498;2022-12-11T02:02:49;19.60;32.40
29539;DHT22;16482;51.046;4.498;2022-12-11T02:05:15;19.60;33.00
29539;DHT22;16482;51.046;4.498;2022-12-11T02:07:54;19.60;32.40
29539;DHT22;16482;51.046;4.498;2022-12-11T02:10:25;19.60;32.30
29539;DHT22;16482;51.046;4.498;2022-12-11T02:13:03;19.60;32.30
29539;DHT22;16482;51.046;4.498;2022-12-11T02:15:42;19.60;32.30
29539;DHT22;16482;51.046;4.498;2022-12-11T02:18:45;19.60;32.40
29539;DHT22;16482;51.046;4.498;2022-12-11T02:21:22;19.60;32.30
29539;DHT22;16482;51.046;4.498;2022-12-11T02:24:03;19.60;32.40
29539;DHT22;16482;51.046;4.498;2022-12-11T02:26:56;19.60;32.40
29539;DHT22;16482;51.046;4.498;2022-12-11T02:29:43;19.60;32.30
29539;DHT22;16482;51.046;4.498;2022-12-11T02:32:23;19.60;32.40
29539;DHT22;16482;51.046;4.498;2022-12-11T02:35:09;19.50;32.20
29539;DHT22;16482;51.046;4.498;2022-12-11T02:37:38;19.60;32.30
29539;DHT22;16482;51.046;4.498;2022-12-11T02:40:22;19.60;32.40
29539;DHT22;16482;51.046;4.498;2022-12-11T02:42:50;19.60;32.30
29539;DHT22;16482;51.046;4.498;2022-12-11T02:45:19;19.60;32.30
29539;DHT22;16482;51.046;4.498;2022-12-11T02:47:50;19.60;32.30
29539;DHT22;16482;51.046;4.498;2022-12-11T02:50:20;19.60;32.40
29539;DHT22;16482;51.046;4.498;2022-12-11T02:52:51;19.60;32.20
29539;DHT22;16482;51.046;4.498;2022-12-11T02:55:22;19.60;32.30
29539;DHT22;16482;51.046;4.498;2022-12-11T02:58:05;19.60;32.30
29539;DHT22;16482;51.046;4.498;2022-12-11T03:00:33;19.60;32.30
29539;DHT22;16482;51.046;4.498;2022-12-11T03:03:00;19.60;32.30
29539;DHT22;16482;51.046;4.498;2022-12-11T03:05:26;19.60;32.30
29539;DHT22;16482;51.046;4.498;2022-12-11T03:07:52;19.60;32.30
29539;DHT22;16482;51.046;4.498;2022-12-11T03:10:19;19.60;32.20
29539;DHT22;16482;51.046;4.498;2022-12-11T03:12:50;19.60;32.20
29539;DHT22;16482;51.046;4.498;2022-12-11T03:15:20;19.60;32.20
29539;DHT22;16482;51.046;4.498;2022-12-11T03:18:08;19.50;32.20
29539;DHT22;16482;51.046;4.498;2022-12-11T03:26:10;19.60;32.30
29539;DHT22;16482;51.046;4.498;2022-12-11T03:28:44;19.60;32.30
29539;DHT22;16482;51.046;4.498;2022-12-11T03:31:41;19.60;32.30
29539;DHT22;16482;51.046;4.498;2022-12-11T03:35:10;19.60;32.30
29539;DHT22;16482;51.046;4.498;2022-12-11T03:37:18;19.60;32.30
29539;DHT22;16482;51.046;4.498;2022-12-11T03:39:53;19.60;32.30
29539;DHT22;16482;51.046;4.498;2022-12-11T03:42:24;19.60;32.40
29539;DHT22;16482;51.046;4.498;2022-12-11T03:44:53;19.50;32.30
29539;DHT22;16482;51.046;4.498;2022-12-11T03:47:29;19.60;32.30
29539;DHT22;16482;51.046;4.498;2022-12-11T03:49:56;19.60;32.40
29539;DHT22;16482;51.046;4.498;2022-12-11T03:52:28;19.60;32.40
29539;DHT22;16482;51.046;4.498;2022-12-11T03:54:58;19.60;32.40
29539;DHT22;16482;51.046;4.498;2022-12-11T03:57:28;19.60;32.30
29539;DHT22;16482;51.046;4.498;2022-12-11T03:59:58;19.60;32.30
29539;DHT22;16482;51.046;4.498;2022-12-11T04:02:24;19.60;32.40
29539;DHT22;16482;51.046;4.498;2022-12-11T04:04:50;19.60;32.30
29539;DHT22;16482;51.046;4.498;2022-12-11T04:07:16;19.50;32.20
29539;DHT22;16482;51.046;4.498;2022-12-11T04:09:42;19.50;32.40
29539;DHT22;16482;51.046;4.498;2022-12-11T04:12:08;19.60;32.30
29539;DHT22;16482;51.046;4.498;2022-12-11T04:14:34;19.60;32.40
29539;DHT22;16482;51.046;4.498;2022-12-11T04:17:19;19.60;32.30
29539;DHT22;16482;51.046;4.498;2022-12-11T04:20:04;19.60;32.40
29539;DHT22;16482;51.046;4.498;2022-12-11T04:22:49;19.60;32.40
29539;DHT22;16482;51.046;4.498;2022-12-11T04:25:33;19.60;32.30
29539;DHT22;16482;51.046;4.498;2022-12-11T04:27:59;19.50;32.30
29539;DHT22;16482;51.046;4.498;2022-12-11T04:30:28;19.50;32.30
29539;DHT22;16482;51.046;4.498;2022-12-11T04:32:54;19.60;32.40
29539;DHT22;16482;51.046;4.498;2022-12-11T04:35:21;19.60;32.40
29539;DHT22;16482;51.046;4.498;2022-12-11T04:37:47;19.60;32.30
29539;DHT22;16482;51.046;4.498;2022-12-11T04:40:23;19.60;32.40
29539;DHT22;16482;51.046;4.498;2022-12-11T04:42:50;19.60;32.30
29539;DHT22;16482;51.046;4.498;2022-12-11T04:45:16;19.60;32.30
29539;DHT22;16482;51.046;4.498;2022-12-11T04:47:42;19.60;32.30
29539;DHT22;16482;51.046;4.498;2022-12-11T04:50:12;19.60;32.40
29539;DHT22;16482;51.046;4.498;2022-12-11T04:52:39;19.60;32.30
29539;DHT22;16482;51.046;4.498;2022-12-11T04:55:06;19.60;32.40
29539;DHT22;16482;51.046;4.498;2022-12-11T04:57:33;19.60;32.40
29539;DHT22;16482;51.046;4.498;2022-12-11T04:59:59;19.60;32.40
29539;DHT22;16482;51.046;4.498;2022-12-11T05:02:25;19.60;32.40
29539;DHT22;16482;51.046;4.498;2022-12-11T05:04:51;19.60;32.40
29539;DHT22;16482;51.046;4.498;2022-12-11T05:07:18;19.60;32.40
29539;DHT22;16482;51.046;4.498;2022-12-11T05:09:46;19.50;33.00
29539;DHT22;16482;51.046;4.498;2022-12-11T05:12:13;19.60;32.50
29539;DHT22;16482;51.046;4.498;2022-12-11T05:14:39;19.60;32.40
29539;DHT22;16482;51.046;4.498;2022-12-11T05:17:05;19.60;32.40
29539;DHT22;16482;51.046;4.498;2022-12-11T05:19:31;19.50;32.30
29539;DHT22;16482;51.046;4.498;2022-12-11T05:21:57;19.50;32.30
29539;DHT22;16482;51.046;4.498;2022-12-11T05:24:26;19.50;32.40
29539;DHT22;16482;51.046;4.498;2022-12-11T05:26:52;19.60;32.40
29539;DHT22;16482;51.046;4.498;2022-12-11T05:29:18;19.50;32.40
29539;DHT22;16482;51.046;4.498;2022-12-11T05:31:44;19.60;32.40
29539;DHT22;16482;51.046;4.498;2022-12-11T05:34:10;19.60;32.30
29539;DHT22;16482;51.046;4.498;2022-12-11T05:36:45;19.60;32.30
29539;DHT22;16482;51.046;4.498;2022-12-11T05:39:12;19.50;32.30
29539;DHT22;16482;51.046;4.498;2022-12-11T05:41:39;19.60;32.40
29539;DHT22;16482;51.046;4.498;2022-12-11T05:44:15;19.50;32.40
29539;DHT22;16482;51.046;4.498;2022-12-11T05:46:41;19.60;32.40
29539;DHT22;16482;51.046;4.498;2022-12-11T05:49:14;19.60;32.40
29539;DHT22;16482;51.046;4.498;2022-12-11T05:51:41;19.60;32.40
29539;DHT22;16482;51.046;4.498;2022-12-11T05:54:09;19.60;32.40
29539;DHT22;16482;51.046;4.498;2022-12-11T05:56:35;19.60;32.30
29539;DHT22;16482;51.046;4.498;2022-12-11T05:59:03;19.60;32.30
29539;DHT22;16482;51.046;4.498;2022-12-11T06:01:37;19.60;32.40
29539;DHT22;16482;51.046;4.498;2022-12-11T06:04:05;19.60;32.40
29539;DHT22;16482;51.046;4.498;2022-12-11T06:06:35;19.60;32.40
29539;DHT22;16482;51.046;4.498;2022-12-11T06:09:16;19.50;32.40
29539;DHT22;16482;51.046;4.498;2022-12-11T06:11:42;19.60;32.50
29539;DHT22;16482;51.046;4.498;2022-12-11T06:14:09;19.60;32.50
29539;DHT22;16482;51.046;4.498;2022-12-11T06:16:35;19.60;32.40
29539;DHT22;16482;51.046;4.498;2022-12-11T06:19:02;19.60;32.50
29539;DHT22;16482;51.046;4.498;2022-12-11T06:21:30;19.60;32.50
29539;DHT22;16482;51.046;4.498;2022-12-11T06:24:01;19.50;32.40
29539;DHT22;16482;51.046;4.498;2022-12-11T06:26:28;19.60;32.50
29539;DHT22;16482;51.046;4.498;2022-12-11T06:28:54;19.50;32.40
29539;DHT22;16482;51.046;4.498;2022-12-11T06:31:20;19.60;32.50
29539;DHT22;16482;51.046;4.498;2022-12-11T06:33:46;19.50;32.50
29539;DHT22;16482;51.046;4.498;2022-12-11T06:36:15;19.60;32.50
29539;DHT22;16482;51.046;4.498;2022-12-11T06:38:42;19.60;32.50
29539;DHT22;16482;51.046;4.498;2022-12-11T06:41:09;19.50;32.40
29539;DHT22;16482;51.046;4.498;2022-12-11T06:43:37;19.60;32.50
29539;DHT22;16482;51.046;4.498;2022-12-11T06:46:11;19.60;32.50
29539;DHT22;16482;51.046;4.498;2022-12-11T06:48:38;19.60;32.50
29539;DHT22;16482;51.046;4.498;2022-12-11T06:51:09;19.60;32.60
29539;DHT22;16482;51.046;4.498;2022-12-11T06:53:43;19.50;32.50
29539;DHT22;16482;51.046;4.498;2022-12-11T06:56:13;19.60;32.50
29539;DHT22;16482;51.046;4.498;2022-12-11T06:58:41;19.50;32.50
29539;DHT22;16482;51.046;4.498;2022-12-11T07:01:33;19.50;32.50
29539;DHT22;16482;51.046;4.498;2022-12-11T07:03:59;19.50;32.50
29539;DHT22;16482;51.046;4.498;2022-12-11T07:06:27;19.50;32.50
29539;DHT22;16482;51.046;4.498;2022-12-11T07:08:53;19.50;32.60
29539;DHT22;16482;51.046;4.498;2022-12-11T07:11:20;19.50;32.50
29539;DHT22;16482;51.046;4.498;2022-12-11T07:13:47;19.50;32.50
29539;DHT22;16482;51.046;4.498;2022-12-11T07:16:15;19.60;32.60
29539;DHT22;16482;51.046;4.498;2022-12-11T07:18:47;19.60;32.60
29539;DHT22;16482;51.046;4.498;2022-12-11T07:21:14;19.60;32.60
29539;DHT22;16482;51.046;4.498;2022-12-11T07:23:40;19.60;32.60
29539;DHT22;16482;51.046;4.498;2022-12-11T07:26:11;19.60;32.60
29539;DHT22;16482;51.046;4.498;2022-12-11T07:28:38;19.60;32.70
29539;DHT22;16482;51.046;4.498;2022-12-11T07:31:07;19.50;32.60
29539;DHT22;16482;51.046;4.498;2022-12-11T07:33:34;19.50;32.60
29539;DHT22;16482;51.046;4.498;2022-12-11T07:36:01;19.50;32.70
29539;DHT22;16482;51.046;4.498;2022-12-11T07:38:28;19.60;32.70
29539;DHT22;16482;51.046;4.498;2022-12-11T07:40:54;19.50;32.70
29539;DHT22;16482;51.046;4.498;2022-12-11T07:43:23;19.60;32.80
29539;DHT22;16482;51.046;4.498;2022-12-11T07:45:52;19.50;32.70
29539;DHT22;16482;51.046;4.498;2022-12-11T07:48:21;19.60;32.80
29539;DHT22;16482;51.046;4.498;2022-12-11T07:50:47;19.50;32.70
29539;DHT22;16482;51.046;4.498;2022-12-11T07:53:24;19.50;32.70
29539;DHT22;16482;51.046;4.498;2022-12-11T07:55:50;19.60;32.80
29539;DHT22;16482;51.046;4.498;2022-12-11T07:58:16;19.60;32.80
29539;DHT22;16482;51.046;4.498;2022-12-11T08:00:45;19.60;32.80
29539;DHT22;16482;51.046;4.498;2022-12-11T08:03:13;19.50;32.80
29539;DHT22;16482;51.046;4.498;2022-12-11T08:05:43;19.50;32.80
29539;DHT22;16482;51.046;4.498;2022-12-11T08:08:21;19.60;32.80
29539;DHT22;16482;51.046;4.498;2022-12-11T08:10:47;19.60;32.80
29539;DHT22;16482;51.046;4.498;2022-12-11T08:13:13;19.50;32.80
29539;DHT22;16482;51.046;4.498;2022-12-11T08:15:40;19.60;32.80
29539;DHT22;16482;51.046;4.498;2022-12-11T08:18:06;19.60;33.10
29539;DHT22;16482;51.046;4.498;2022-12-11T08:20:39;19.60;32.90
29539;DHT22;16482;51.046;4.498;2022-12-11T08:23:05;19.60;32.80
29539;DHT22;16482;51.046;4.498;2022-12-11T08:25:35;19.50;32.80
29539;DHT22;16482;51.046;4.498;2022-12-11T08:28:01;19.50;32.70
29539;DHT22;16482;51.046;4.498;2022-12-11T08:30:27;19.60;32.80
29539;DHT22;16482;51.046;4.498;2022-12-11T08:32:56;19.60;32.80
29539;DHT22;16482;51.046;4.498;2022-12-11T08:35:25;19.60;32.80
29539;DHT22;16482;51.046;4.498;2022-12-11T08:37:51;19.60;32.80
29539;DHT22;16482;51.046;4.498;2022-12-11T08:40:17;19.50;32.70
29539;DHT22;16482;51.046;4.498;2022-12-11T08:42:43;19.60;32.70
29539;DHT22;16482;51.046;4.498;2022-12-11T08:45:09;19.60;32.80
29539;DHT22;16482;51.046;4.498;2022-12-11T08:47:38;19.50;32.70
29539;DHT22;16482;51.046;4.498;2022-12-11T08:50:05;19.50;32.70
29539;DHT22;16482;51.046;4.498;2022-12-11T08:52:33;19.50;32.60
29539;DHT22;16482;51.046;4.498;2022-12-11T08:54:59;19.50;32.60
29539;DHT22;16482;51.046;4.498;2022-12-11T08:57:27;19.50;32.60
29539;DHT22;16482;51.046;4.498;2022-12-11T08:59:53;19.50;32.70
29539;DHT22;16482;51.046;4.498;2022-12-11T09:02:19;19.50;32.60
29539;DHT22;16482;51.046;4.498;2022-12-11T09:04:46;19.50;32.70
29539;DHT22;16482;51.046;4.498;2022-12-11T09:07:12;19.60;32.70
29539;DHT22;16482;51.046;4.498;2022-12-11T09:09:38;19.60;32.70
29539;DHT22;16482;51.046;4.498;2022-12-11T09:12:04;19.50;32.70
29539;DHT22;16482;51.046;4.498;2022-12-11T09:14:30;19.50;32.60
29539;DHT22;16482;51.046;4.498;2022-12-11T09:16:56;19.50;32.70
29539;DHT22;16482;51.046;4.498;2022-12-11T09:19:28;19.50;32.70
29539;DHT22;16482;51.046;4.498;2022-12-11T09:21:54;19.60;32.70
29539;DHT22;16482;51.046;4.498;2022-12-11T09:24:23;19.60;32.70
29539;DHT22;16482;51.046;4.498;2022-12-11T09:26:49;19.60;32.60
29539;DHT22;16482;51.046;4.498;2022-12-11T09:29:15;19.60;32.60
29539;DHT22;16482;51.046;4.498;2022-12-11T09:31:41;19.60;32.70
29539;DHT22;16482;51.046;4.498;2022-12-11T09:34:10;19.50;33.20
29539;DHT22;16482;51.046;4.498;2022-12-11T09:36:38;19.60;32.60
29539;DHT22;16482;51.046;4.498;2022-12-11T09:39:09;19.60;32.60
29539;DHT22;16482;51.046;4.498;2022-12-11T09:41:52;19.60;32.60
29539;DHT22;16482;51.046;4.498;2022-12-11T09:44:30;19.50;32.50
29539;DHT22;16482;51.046;4.498;2022-12-11T09:46:58;19.60;32.50
29539;DHT22;16482;51.046;4.498;2022-12-11T09:52:17;19.50;32.50
29539;DHT22;16482;51.046;4.498;2022-12-11T09:54:52;19.60;32.50
29539;DHT22;16482;51.046;4.498;2022-12-11T09:57:40;19.50;32.50
29539;DHT22;16482;51.046;4.498;2022-12-11T10:00:15;19.50;32.50
29539;DHT22;16482;51.046;4.498;2022-12-11T10:03:05;19.50;32.60
29539;DHT22;16482;51.046;4.498;2022-12-11T10:11:19;19.50;32.50
29539;DHT22;16482;51.046;4.498;2022-12-11T10:16:39;19.50;32.50
29539;DHT22;16482;51.046;4.498;2022-12-11T10:19:19;19.50;32.50
29539;DHT22;16482;51.046;4.498;2022-12-11T10:21:54;19.50;33.10
29539;DHT22;16482;51.046;4.498;2022-12-11T10:26:46;19.50;32.50
29539;DHT22;16482;51.046;4.498;2022-12-11T10:29:16;19.60;32.50
29539;DHT22;16482;51.046;4.498;2022-12-11T10:31:57;19.50;32.50
29539;DHT22;16482;51.046;4.498;2022-12-11T10:34:32;19.60;33.10
29539;DHT22;16482;51.046;4.498;2022-12-11T10:37:02;19.50;32.40
29539;DHT22;16482;51.046;4.498;2022-12-11T10:39:29;19.50;32.20
29539;DHT22;16482;51.046;4.498;2022-12-11T10:41:55;19.50;32.10
29539;DHT22;16482;51.046;4.498;2022-12-11T10:44:30;19.50;32.20
29539;DHT22;16482;51.046;4.498;2022-12-11T10:47:05;19.50;32.30
29539;DHT22;16482;51.046;4.498;2022-12-11T10:49:33;19.50;32.40
29539;DHT22;16482;51.046;4.498;2022-12-11T10:57:32;19.50;32.40
29539;DHT22;16482;51.046;4.498;2022-12-11T11:00:03;19.60;32.50
29539;DHT22;16482;51.046;4.498;2022-12-11T11:02:34;19.60;32.40
29539;DHT22;16482;51.046;4.498;2022-12-11T11:05:16;19.70;32.50
29539;DHT22;16482;51.046;4.498;2022-12-11T11:07:42;19.70;32.30
29539;DHT22;16482;51.046;4.498;2022-12-11T11:12:44;19.80;32.30
29539;DHT22;16482;51.046;4.498;2022-12-11T11:15:11;19.90;32.20
29539;DHT22;16482;51.046;4.498;2022-12-11T11:17:46;19.90;32.20
29539;DHT22;16482;51.046;4.498;2022-12-11T11:20:18;19.90;32.10
29539;DHT22;16482;51.046;4.498;2022-12-11T11:22:48;20.00;32.00
29539;DHT22;16482;51.046;4.498;2022-12-11T11:25:29;20.10;32.00
29539;DHT22;16482;51.046;4.498;2022-12-11T11:27:58;20.10;31.90
29539;DHT22;16482;51.046;4.498;2022-12-11T11:33:05;20.20;31.80
29539;DHT22;16482;51.046;4.498;2022-12-11T11:35:35;20.30;31.80
29539;DHT22;16482;51.046;4.498;2022-12-11T11:38:16;20.40;31.70
29539;DHT22;16482;51.046;4.498;2022-12-11T11:43:38;20.40;31.50
29539;DHT22;16482;51.046;4.498;2022-12-11T11:46:18;20.50;31.50
29539;DHT22;16482;51.046;4.498;2022-12-11T11:49:05;20.60;31.50
29539;DHT22;16482;51.046;4.498;2022-12-11T11:52:00;20.60;31.40
29539;DHT22;16482;51.046;4.498;2022-12-11T11:54:32;20.70;31.30
29539;DHT22;16482;51.046;4.498;2022-12-11T11:57:04;20.70;31.20
29539;DHT22;16482;51.046;4.498;2022-12-11T11:59:41;20.80;31.20
29539;DHT22;16482;51.046;4.498;2022-12-11T12:02:19;20.80;31.10
29539;DHT22;16482;51.046;4.498;2022-12-11T12:04:46;20.90;31.00
29539;DHT22;16482;51.046;4.498;2022-12-11T12:07:28;21.00;31.00
29539;DHT22;16482;51.046;4.498;2022-12-11T12:12:58;21.10;30.80
29539;DHT22;16482;51.046;4.498;2022-12-11T12:28:40;21.40;30.50
29539;DHT22;16482;51.046;4.498;2022-12-11T12:39:53;21.60;30.20
29539;DHT22;16482;51.046;4.498;2022-12-11T12:47:40;21.70;30.20
29539;DHT22;16482;51.046;4.498;2022-12-11T12:50:20;21.70;30.10
29539;DHT22;16482;51.046;4.498;2022-12-11T12:52:48;21.80;30.10
29539;DHT22;16482;51.046;4.498;2022-12-11T12:55:20;21.80;30.10
29539;DHT22;16482;51.046;4.498;2022-12-11T12:58:02;21.80;30.10
29539;DHT22;16482;51.046;4.498;2022-12-11T13:00:42;21.80;30.00
29539;DHT22;16482;51.046;4.498;2022-12-11T13:03:24;21.90;30.00
29539;DHT22;16482;51.046;4.498;2022-12-11T13:06:00;21.90;30.00
29539;DHT22;16482;51.046;4.498;2022-12-11T13:08:39;21.90;30.00
29539;DHT22;16482;51.046;4.498;2022-12-11T13:11:07;21.90;30.00
29539;DHT22;16482;51.046;4.498;2022-12-11T13:13:39;21.90;30.00
29539;DHT22;16482;51.046;4.498;2022-12-11T13:16:24;21.90;30.00
29539;DHT22;16482;51.046;4.498;2022-12-11T13:18:51;21.90;30.00
29539;DHT22;16482;51.046;4.498;2022-12-11T13:21:32;21.90;30.00
29539;DHT22;16482;51.046;4.498;2022-12-11T13:26:38;21.90;30.00
29539;DHT22;16482;51.046;4.498;2022-12-11T13:29:05;21.90;30.50
29539;DHT22;16482;51.046;4.498;2022-12-11T13:31:36;21.90;30.00
29539;DHT22;16482;51.046;4.498;2022-12-11T13:34:13;21.90;30.00
29539;DHT22;16482;51.046;4.498;2022-12-11T13:36:40;22.00;30.00
29539;DHT22;16482;51.046;4.498;2022-12-11T13:39:26;22.00;30.00
29539;DHT22;16482;51.046;4.498;2022-12-11T13:42:04;22.00;29.90
29539;DHT22;16482;51.046;4.498;2022-12-11T13:44:39;22.10;29.90
29539;DHT22;16482;51.046;4.498;2022-12-11T13:47:11;22.10;29.90
29539;DHT22;16482;51.046;4.498;2022-12-11T13:49:41;22.10;29.90
29539;DHT22;16482;51.046;4.498;2022-12-11T13:52:17;22.10;29.90
29539;DHT22;16482;51.046;4.498;2022-12-11T13:54:53;22.20;29.80
29539;DHT22;16482;51.046;4.498;2022-12-11T13:57:22;22.10;29.80
29539;DHT22;16482;51.046;4.498;2022-12-11T13:59:56;22.10;29.80
29539;DHT22;16482;51.046;4.498;2022-12-11T14:02:29;22.20;29.80
29539;DHT22;16482;51.046;4.498;2022-12-11T14:05:05;22.20;29.80
29539;DHT22;16482;51.046;4.498;2022-12-11T14:07:45;22.30;29.80
29539;DHT22;16482;51.046;4.498;2022-12-11T14:10:19;22.20;29.80
29539;DHT22;16482;51.046;4.498;2022-12-11T14:15:22;22.20;29.80
29539;DHT22;16482;51.046;4.498;2022-12-11T14:17:49;22.20;29.80
29539;DHT22;16482;51.046;4.498;2022-12-11T14:20:21;22.20;29.80
29539;DHT22;16482;51.046;4.498;2022-12-11T14:22:48;22.20;29.70
29539;DHT22;16482;51.046;4.498;2022-12-11T14:25:21;22.20;29.70
29539;DHT22;16482;51.046;4.498;2022-12-11T14:27:52;22.20;29.70
29539;DHT22;16482;51.046;4.498;2022-12-11T14:30:30;22.20;29.70
29539;DHT22;16482;51.046;4.498;2022-12-11T14:33:00;22.30;29.80
29539;DHT22;16482;51.046;4.498;2022-12-11T14:35:32;22.20;29.80
29539;DHT22;16482;51.046;4.498;2022-12-11T14:38:05;22.30;29.80
29539;DHT22;16482;51.046;4.498;2022-12-11T14:40:39;22.20;29.80
29539;DHT22;16482;51.046;4.498;2022-12-11T14:43:10;22.30;29.80
29539;DHT22;16482;51.046;4.498;2022-12-11T14:45:40;22.30;29.80
29539;DHT22;16482;51.046;4.498;2022-12-11T14:48:20;22.30;29.80
29539;DHT22;16482;51.046;4.498;2022-12-11T14:50:51;22.30;29.90
29539;DHT22;16482;51.046;4.498;2022-12-11T14:53:47;22.30;29.80
29539;DHT22;16482;51.046;4.498;2022-12-11T14:56:26;22.30;29.80
29539;DHT22;16482;51.046;4.498;2022-12-11T14:59:01;22.30;29.80
29539;DHT22;16482;51.046;4.498;2022-12-11T15:01:34;22.30;29.90
29539;DHT22;16482;51.046;4.498;2022-12-11T15:04:18;22.30;29.90
29539;DHT22;16482;51.046;4.498;2022-12-11T15:06:48;22.30;30.30
29539;DHT22;16482;51.046;4.498;2022-12-11T15:09:24;22.30;29.80
29539;DHT22;16482;51.046;4.498;2022-12-11T15:11:52;22.30;29.80
29539;DHT22;16482;51.046;4.498;2022-12-11T15:14:21;22.30;29.80
29539;DHT22;16482;51.046;4.498;2022-12-11T15:16:53;22.30;29.80
29539;DHT22;16482;51.046;4.498;2022-12-11T15:19:29;22.30;29.80
29539;DHT22;16482;51.046;4.498;2022-12-11T15:22:04;22.40;29.90
29539;DHT22;16482;51.046;4.498;2022-12-11T15:24:41;22.40;29.90
29539;DHT22;16482;51.046;4.498;2022-12-11T15:27:34;22.40;29.90
29539;DHT22;16482;51.046;4.498;2022-12-11T15:32:42;22.40;29.80
29539;DHT22;16482;51.046;4.498;2022-12-11T15:35:35;22.40;29.90
29539;DHT22;16482;51.046;4.498;2022-12-11T15:38:01;22.40;29.70
29539;DHT22;16482;51.046;4.498;2022-12-11T15:40:28;22.40;29.80
29539;DHT22;16482;51.046;4.498;2022-12-11T15:42:54;22.40;29.80
29539;DHT22;16482;51.046;4.498;2022-12-11T15:45:25;22.50;29.90
29539;DHT22;16482;51.046;4.498;2022-12-11T15:47:53;22.50;29.90
29539;DHT22;16482;51.046;4.498;2022-12-11T15:50:21;22.40;29.80
29539;DHT22;16482;51.046;4.498;2022-12-11T15:52:49;22.50;29.80
29539;DHT22;16482;51.046;4.498;2022-12-11T15:55:19;22.50;29.80
29539;DHT22;16482;51.046;4.498;2022-12-11T15:57:56;22.50;29.80
29539;DHT22;16482;51.046;4.498;2022-12-11T16:00:23;22.50;29.80
29539;DHT22;16482;51.046;4.498;2022-12-11T16:02:50;22.50;29.70
29539;DHT22;16482;51.046;4.498;2022-12-11T16:05:16;22.50;29.80
29539;DHT22;16482;51.046;4.498;2022-12-11T16:07:43;22.50;29.80
29539;DHT22;16482;51.046;4.498;2022-12-11T16:10:15;22.50;29.80
29539;DHT22;16482;51.046;4.498;2022-12-11T16:12:42;22.50;29.80
29539;DHT22;16482;51.046;4.498;2022-12-11T16:15:10;22.50;29.80
29539;DHT22;16482;51.046;4.498;2022-12-11T16:17:37;22.60;29.80
29539;DHT22;16482;51.046;4.498;2022-12-11T16:20:05;22.60;29.80
29539;DHT22;16482;51.046;4.498;2022-12-11T16:22:31;22.60;29.80
29539;DHT22;16482;51.046;4.498;2022-12-11T16:24:57;22.60;29.90
29539;DHT22;16482;51.046;4.498;2022-12-11T16:27:25;22.60;29.80
29539;DHT22;16482;51.046;4.498;2022-12-11T16:29:51;22.60;29.80
29539;DHT22;16482;51.046;4.498;2022-12-11T16:32:20;22.60;29.80
29539;DHT22;16482;51.046;4.498;2022-12-11T16:34:46;22.60;29.80
29539;DHT22;16482;51.046;4.498;2022-12-11T16:37:12;22.60;29.80
29539;DHT22;16482;51.046;4.498;2022-12-11T16:39:39;22.60;29.80
29539;DHT22;16482;51.046;4.498;2022-12-11T16:42:07;22.60;29.80
29539;DHT22;16482;51.046;4.498;2022-12-11T16:44:33;22.60;29.90
29539;DHT22;16482;51.046;4.498;2022-12-11T16:46:59;22.60;29.80
29539;DHT22;16482;51.046;4.498;2022-12-11T16:49:25;22.60;29.80
29539;DHT22;16482;51.046;4.498;2022-12-11T16:51:51;22.60;29.80
29539;DHT22;16482;51.046;4.498;2022-12-11T16:54:17;22.60;29.90
29539;DHT22;16482;51.046;4.498;2022-12-11T16:56:44;22.70;30.00
29539;DHT22;16482;51.046;4.498;2022-12-11T16:59:10;22.70;30.00
29539;DHT22;16482;51.046;4.498;2022-12-11T17:01:39;22.70;30.00
29539;DHT22;16482;51.046;4.498;2022-12-11T17:04:05;22.70;29.90
29539;DHT22;16482;51.046;4.498;2022-12-11T17:06:31;22.80;29.90